createdAt,value
2023-02-19T00:02:26.746Z,9.40
2023-02-19T00:04:54.388Z,9.40
2023-02-19T00:07:21.886Z,9.40
2023-02-19T00:09:49.468Z,9.30
2023-02-19T00:14:45.061Z,9.30
2023-02-19T00:17:12.578Z,9.30
2023-02-19T00:19:43.022Z,9.30
2023-02-19T00:22:10.725Z,9.30
2023-02-19T00:24:38.277Z,9.30
2023-02-19T00:29:33.768Z,9.30
2023-02-19T00:32:01.441Z,9.30
2023-02-19T00:34:29.153Z,9.30
2023-02-19T00:36:56.985Z,9.20
2023-02-19T00:39:24.684Z,9.30
2023-02-19T00:41:52.378Z,9.30
2023-02-19T00:44:20.646Z,9.30
2023-02-19T00:46:49.226Z,9.30
2023-02-19T00:49:22.781Z,9.40
2023-02-19T00:51:52.414Z,9.40
2023-02-19T00:54:22.630Z,9.30
2023-02-19T00:56:51.081Z,9.30
2023-02-19T01:01:46.861Z,9.10
2023-02-19T01:04:16.429Z,9.00
2023-02-19T01:06:44.549Z,9.00
2023-02-19T01:09:12.341Z,8.90
2023-02-19T01:11:39.968Z,8.70
2023-02-19T01:14:07.857Z,8.70
2023-02-19T01:16:35.720Z,8.60
2023-02-19T01:19:03.554Z,8.60
2023-02-19T01:21:31.625Z,8.60
2023-02-19T01:23:59.618Z,8.50
2023-02-19T01:26:30.536Z,8.50
2023-02-19T01:28:59.351Z,8.50
2023-02-19T01:31:27.542Z,8.50
2023-02-19T01:33:58.308Z,8.50
2023-02-19T01:36:27.178Z,8.50
2023-02-19T01:38:55.231Z,8.50
2023-02-19T01:41:25.484Z,8.50
2023-02-19T01:44:28.420Z,8.50
2023-02-19T01:46:57.756Z,8.50
2023-02-19T01:49:30.192Z,8.50
2023-02-19T01:52:02.132Z,8.40
2023-02-19T01:54:34.904Z,8.40
2023-02-19T01:57:06.904Z,8.50
2023-02-19T01:59:34.855Z,8.50
2023-02-19T02:02:02.619Z,8.50
2023-02-19T02:04:33.661Z,8.50
2023-02-19T02:07:23.951Z,8.60
2023-02-19T02:10:11.045Z,8.60
2023-02-19T02:12:38.702Z,8.60
2023-02-19T02:15:06.968Z,8.60
2023-02-19T02:17:56.808Z,8.70
2023-02-19T02:20:27.448Z,8.70
2023-02-19T02:23:33.885Z,8.70
2023-02-19T02:26:39.330Z,8.70
2023-02-19T02:29:45.337Z,8.70
2023-02-19T02:32:24.441Z,8.60
2023-02-19T02:34:58.409Z,8.70
2023-02-19T02:37:30.342Z,8.50
2023-02-19T02:39:59.193Z,8.50
2023-02-19T02:42:29.610Z,8.40
2023-02-19T02:45:38.084Z,8.30
2023-02-19T02:48:34.886Z,8.00
2023-02-19T02:51:17.471Z,8.00
2023-02-19T02:54:35.671Z,7.90
2023-02-19T02:57:09.687Z,7.80
2023-02-19T02:59:46.037Z,7.70
2023-02-19T03:02:22.846Z,7.60
2023-02-19T03:05:41.004Z,7.50
2023-02-19T03:08:17.678Z,7.50
2023-02-19T03:10:51.735Z,7.40
2023-02-19T03:13:52.503Z,7.40
2023-02-19T03:16:55.348Z,7.40
2023-02-19T03:19:25.850Z,7.40
2023-02-19T03:22:17.055Z,7.40
2023-02-19T03:25:11.182Z,7.50
2023-02-19T03:27:42.255Z,7.50
2023-02-19T03:30:32.459Z,7.50
2023-02-19T03:33:08.149Z,7.50
2023-02-19T03:35:46.528Z,7.40
2023-02-19T03:38:27.176Z,7.40
2023-02-19T03:41:15.912Z,7.40
2023-02-19T03:44:10.292Z,7.40
2023-02-19T03:46:53.033Z,7.30
2023-02-19T03:49:30.552Z,7.30
2023-02-19T03:52:14.210Z,7.30
2023-02-19T03:54:50.969Z,7.20
2023-02-19T03:57:24.862Z,7.10
2023-02-19T04:00:11.217Z,7.10
2023-02-19T04:03:05.944Z,7.00
2023-02-19T04:05:39.850Z,6.90
2023-02-19T04:08:16.572Z,6.80
2023-02-19T04:10:51.485Z,6.80
2023-02-19T04:13:51.689Z,6.70
2023-02-19T04:16:23.197Z,6.60
2023-02-19T04:18:54.731Z,6.60
2023-02-19T04:21:23.586Z,6.50
2023-02-19T04:23:51.417Z,6.50
2023-02-19T04:26:22.497Z,6.50
2023-02-19T04:28:50.172Z,6.40
2023-02-19T04:31:17.976Z,6.40
2023-02-19T04:33:45.675Z,6.40
2023-02-19T04:36:13.166Z,6.40
2023-02-19T04:38:41.128Z,6.40
2023-02-19T04:41:10.031Z,6.40
2023-02-19T04:43:37.742Z,6.40
2023-02-19T04:46:05.447Z,6.40
2023-02-19T04:48:33.193Z,6.40
2023-02-19T04:51:04.690Z,6.40
2023-02-19T04:53:32.270Z,6.40
2023-02-19T04:56:07.153Z,6.40
2023-02-19T04:58:35.245Z,6.40
2023-02-19T05:01:02.773Z,6.40
2023-02-19T05:03:31.756Z,6.40
2023-02-19T05:06:03.692Z,6.50
2023-02-19T05:08:31.509Z,6.50
2023-02-19T05:11:00.105Z,6.50
2023-02-19T05:13:28.260Z,6.50
2023-02-19T05:16:05.695Z,6.50
2023-02-19T05:18:34.716Z,6.50
2023-02-19T05:21:02.513Z,6.50
2023-02-19T05:23:30.156Z,6.50
2023-02-19T05:25:57.696Z,6.60
2023-02-19T05:28:31.648Z,6.60
2023-02-19T05:31:06.311Z,6.60
2023-02-19T05:33:34.750Z,6.60
2023-02-19T05:36:06.925Z,6.60
2023-02-19T05:38:35.158Z,6.60
2023-02-19T05:41:20.059Z,6.60
2023-02-19T05:43:49.819Z,6.60
2023-02-19T05:46:20.747Z,6.60
2023-02-19T05:48:49.446Z,6.60
2023-02-19T05:51:19.585Z,6.60
2023-02-19T05:53:47.486Z,6.60
2023-02-19T05:56:34.655Z,6.60
2023-02-19T05:59:06.815Z,6.60
2023-02-19T06:01:35.728Z,6.60
2023-02-19T06:04:03.546Z,6.60
2023-02-19T06:06:31.337Z,6.60
2023-02-19T06:08:58.905Z,6.60
2023-02-19T06:11:26.517Z,6.60
2023-02-19T06:13:54.108Z,6.60
2023-02-19T06:16:22.308Z,6.60
2023-02-19T06:18:50.272Z,6.60
2023-02-19T06:21:19.052Z,6.60
2023-02-19T06:23:46.922Z,6.60
2023-02-19T06:26:25.351Z,6.50
2023-02-19T06:28:54.571Z,6.50
2023-02-19T06:31:23.423Z,6.50
2023-02-19T06:33:51.077Z,6.50
2023-02-19T06:36:20.962Z,6.50
2023-02-19T06:38:48.631Z,6.50
2023-02-19T06:41:16.595Z,6.50
2023-02-19T06:43:46.602Z,6.50
2023-02-19T06:46:14.627Z,6.50
2023-02-19T06:48:44.071Z,6.50
2023-02-19T06:51:13.532Z,6.50
2023-02-19T06:53:41.307Z,6.50
2023-02-19T06:56:26.774Z,6.50
2023-02-19T06:58:56.601Z,6.50
2023-02-19T07:01:24.371Z,6.50
2023-02-19T07:03:52.862Z,6.50
2023-02-19T07:06:22.475Z,6.50
2023-02-19T07:08:50.595Z,6.50
2023-02-19T07:11:18.787Z,6.40
2023-02-19T07:13:46.824Z,6.40
2023-02-19T07:16:15.409Z,6.40
2023-02-19T07:18:43.092Z,6.40
2023-02-19T07:21:13.720Z,6.30
2023-02-19T07:23:42.693Z,6.30
2023-02-19T07:26:12.624Z,6.40
2023-02-19T07:28:41.034Z,6.40
2023-02-19T07:31:08.655Z,6.30
2023-02-19T07:33:36.854Z,6.30
2023-02-19T07:36:07.676Z,6.40
2023-02-19T07:38:35.209Z,6.40
2023-02-19T07:41:04.685Z,6.40
2023-02-19T07:43:35.127Z,6.40
2023-02-19T07:46:05.701Z,6.40
2023-02-19T07:48:35.540Z,6.50
2023-02-19T07:51:04.958Z,6.40
2023-02-19T07:53:34.601Z,6.40
2023-02-19T07:56:06.672Z,6.40
2023-02-19T07:58:34.827Z,6.40
2023-02-19T08:01:15.547Z,6.30
2023-02-19T08:03:44.431Z,6.40
2023-02-19T08:06:12.902Z,6.40
2023-02-19T08:08:40.438Z,6.40
2023-02-19T08:11:26.886Z,6.40
2023-02-19T08:13:54.506Z,6.40
2023-02-19T08:16:36.887Z,6.40
2023-02-19T08:19:10.375Z,6.50
2023-02-19T08:21:37.906Z,6.50
2023-02-19T08:24:05.900Z,6.60
2023-02-19T08:26:34.062Z,6.60
2023-02-19T08:29:02.107Z,6.60
2023-02-19T08:31:30.041Z,6.70
2023-02-19T08:36:25.801Z,6.70
2023-02-19T08:38:53.452Z,6.70
2023-02-19T08:41:21.482Z,6.70
2023-02-19T08:43:49.334Z,6.60
2023-02-19T08:46:17.138Z,6.70
2023-02-19T08:48:45.040Z,6.70
2023-02-19T08:51:12.998Z,6.80
2023-02-19T08:53:41.207Z,6.80
2023-02-19T08:56:11.846Z,6.90
2023-02-19T08:58:40.314Z,7.00
2023-02-19T09:01:13.097Z,7.10
2023-02-19T09:03:41.555Z,7.10
2023-02-19T09:06:15.701Z,7.20
2023-02-19T09:08:43.310Z,7.30
2023-02-19T09:11:11.409Z,7.30
2023-02-19T09:13:39.212Z,7.30
2023-02-19T09:16:07.165Z,7.40
2023-02-19T09:18:35.494Z,7.50
2023-02-19T09:21:05.108Z,7.50
2023-02-19T09:23:34.446Z,7.50
2023-02-19T09:26:06.635Z,7.60
2023-02-19T09:28:35.172Z,7.60
2023-02-19T09:31:06.997Z,7.70
2023-02-19T09:33:34.844Z,7.70
2023-02-19T09:36:06.549Z,7.80
2023-02-19T09:38:34.295Z,7.80
2023-02-19T09:41:09.064Z,7.90
2023-02-19T09:43:37.990Z,8.00
2023-02-19T09:46:26.474Z,8.00
2023-02-19T09:48:59.988Z,8.00
2023-02-19T09:51:28.794Z,8.00
2023-02-19T09:53:57.379Z,8.00
2023-02-19T09:56:26.824Z,8.10
2023-02-19T09:58:58.174Z,8.10
2023-02-19T10:01:30.707Z,8.20
2023-02-19T10:03:58.497Z,8.20
2023-02-19T10:06:29.978Z,8.30
2023-02-19T10:09:20.274Z,8.40
2023-02-19T10:11:49.685Z,8.50
2023-02-19T10:14:43.745Z,8.50
2023-02-19T10:17:24.239Z,8.70
2023-02-19T10:19:52.865Z,8.70
2023-02-19T10:22:20.858Z,8.70
2023-02-19T10:24:55.595Z,8.80
2023-02-19T10:27:32.068Z,8.80
2023-02-19T10:30:00.885Z,8.90
2023-02-19T10:32:29.631Z,8.90
2023-02-19T10:35:09.716Z,9.00
2023-02-19T10:37:46.380Z,9.00
2023-02-19T10:40:27.161Z,9.00
2023-02-19T10:43:04.178Z,9.10
2023-02-19T10:45:48.490Z,9.20
2023-02-19T10:48:30.655Z,9.20
2023-02-19T10:51:06.131Z,9.30
2023-02-19T10:53:46.661Z,9.30
2023-02-19T10:56:25.339Z,9.30
2023-02-19T10:58:53.481Z,9.40
2023-02-19T11:01:23.284Z,9.50
2023-02-19T11:03:52.290Z,9.50
2023-02-19T11:06:26.944Z,9.60
2023-02-19T11:08:58.114Z,9.60
2023-02-19T11:11:33.951Z,9.80
2023-02-19T11:14:16.928Z,9.90
2023-02-19T11:16:52.139Z,9.90
2023-02-19T11:19:37.851Z,10.00
2023-02-19T11:22:30.844Z,10.10
2023-02-19T11:25:15.435Z,10.20
2023-02-19T11:28:07.333Z,10.30
2023-02-19T11:30:43.330Z,10.30
2023-02-19T11:33:16.914Z,10.30
2023-02-19T11:35:45.924Z,10.50
2023-02-19T11:38:16.260Z,10.60
2023-02-19T11:40:50.131Z,10.50
2023-02-19T11:43:55.805Z,10.70
2023-02-19T11:46:49.361Z,11.10
2023-02-19T11:49:22.988Z,11.10
2023-02-19T11:52:11.403Z,11.50
2023-02-19T11:54:57.785Z,11.50
2023-02-19T11:57:40.524Z,11.70
2023-02-19T12:00:24.735Z,11.80
2023-02-19T12:03:25.660Z,11.90
2023-02-19T12:06:25.580Z,11.90
2023-02-19T12:09:11.783Z,12.00
2023-02-19T12:12:05.997Z,12.40
2023-02-19T12:14:45.602Z,12.70
2023-02-19T12:17:32.302Z,12.90
2023-02-19T12:20:26.359Z,13.30
2023-02-19T12:23:13.064Z,13.90
2023-02-19T12:26:15.753Z,13.90
2023-02-19T12:28:57.387Z,14.50
2023-02-19T12:31:35.135Z,14.50
2023-02-19T12:34:09.070Z,16.70
2023-02-19T12:36:46.646Z,14.70
2023-02-19T12:39:21.145Z,15.20
2023-02-19T12:42:33.203Z,15.10
2023-02-19T12:45:11.053Z,14.80
2023-02-19T12:47:46.334Z,14.80
2023-02-19T12:50:20.344Z,15.10
2023-02-19T12:52:52.061Z,15.10
2023-02-19T12:55:24.760Z,15.30
2023-02-19T12:57:54.828Z,15.30
2023-02-19T13:00:31.292Z,15.20
2023-02-19T13:03:24.493Z,15.00
2023-02-19T13:06:04.554Z,15.10
2023-02-19T13:08:36.571Z,15.10
2023-02-19T13:11:19.413Z,15.30
2023-02-19T13:13:55.874Z,15.70
2023-02-19T13:18:58.642Z,16.20
2023-02-19T13:21:49.847Z,16.40
2023-02-19T13:24:25.460Z,16.60
2023-02-19T13:26:53.363Z,16.80
2023-02-19T13:29:58.502Z,17.10
2023-02-19T13:32:41.471Z,17.00
2023-02-19T13:35:38.209Z,16.80
2023-02-19T13:38:07.775Z,16.50
2023-02-19T13:40:39.416Z,16.20
2023-02-19T13:43:23.540Z,15.90
2023-02-19T13:45:59.017Z,15.80
2023-02-19T13:48:26.701Z,15.90
2023-02-19T13:51:13.215Z,15.90
2023-02-19T13:53:48.225Z,16.00
2023-02-19T13:56:34.098Z,16.00
2023-02-19T13:59:23.281Z,15.90
2023-02-19T14:01:53.778Z,15.80
2023-02-19T14:04:41.720Z,15.60
2023-02-19T14:07:09.506Z,15.50
2023-02-19T14:09:45.751Z,15.30
2023-02-19T14:12:15.602Z,15.30
2023-02-19T14:14:57.198Z,15.50
2023-02-19T14:17:44.004Z,15.30
2023-02-19T14:20:17.527Z,15.20
2023-02-19T14:22:48.843Z,14.50
2023-02-19T14:25:28.692Z,14.50
2023-02-19T14:28:04.016Z,13.90
2023-02-19T14:30:34.713Z,13.20
2023-02-19T14:33:10.682Z,13.10
2023-02-19T14:35:42.726Z,12.80
2023-02-19T14:38:30.221Z,12.60
2023-02-19T14:40:59.184Z,12.50
2023-02-19T14:43:28.381Z,12.50
2023-02-19T14:46:09.129Z,12.40
2023-02-19T14:48:46.528Z,12.40
2023-02-19T14:51:22.209Z,12.30
2023-02-19T14:53:51.373Z,12.20
2023-02-19T14:56:26.719Z,12.10
2023-02-19T14:59:27.771Z,12.00
2023-02-19T15:02:03.986Z,11.90
2023-02-19T15:04:37.423Z,11.90
2023-02-19T15:07:08.524Z,11.80
2023-02-19T15:09:57.507Z,11.70
2023-02-19T15:12:29.078Z,11.60
2023-02-19T15:15:01.826Z,11.60
2023-02-19T15:17:33.584Z,11.60
2023-02-19T15:20:09.419Z,11.60
2023-02-19T15:22:41.507Z,11.50
2023-02-19T15:25:27.223Z,11.50
2023-02-19T15:27:55.000Z,11.50
2023-02-19T15:30:27.519Z,11.50
2023-02-19T15:32:59.860Z,11.50
2023-02-19T15:35:29.673Z,11.40
2023-02-19T15:37:57.439Z,11.60
2023-02-19T15:40:30.070Z,11.40
2023-02-19T15:42:59.545Z,11.30
2023-02-19T15:45:31.005Z,11.30
2023-02-19T15:48:07.402Z,11.20
2023-02-19T15:50:39.345Z,11.20
2023-02-19T15:53:20.686Z,11.20
2023-02-19T15:55:54.258Z,11.10
2023-02-19T15:58:30.931Z,11.10
2023-02-19T16:01:04.871Z,11.10
2023-02-19T16:03:33.205Z,11.10
2023-02-19T16:06:16.052Z,11.10
2023-02-19T16:08:45.547Z,11.10
2023-02-19T16:11:22.374Z,11.00
2023-02-19T16:13:52.616Z,10.90
2023-02-19T16:16:25.656Z,10.80
2023-02-19T16:18:54.163Z,10.80
2023-02-19T16:21:24.583Z,10.70
2023-02-19T16:24:01.503Z,10.70
2023-02-19T16:26:29.410Z,10.70
2023-02-19T16:28:57.242Z,10.60
2023-02-19T16:31:25.538Z,10.50
2023-02-19T16:33:53.432Z,10.50
2023-02-19T16:36:33.010Z,10.50
2023-02-19T16:39:09.340Z,10.40
2023-02-19T16:41:40.134Z,10.30
2023-02-19T16:44:28.052Z,10.30
2023-02-19T16:47:00.498Z,10.20
2023-02-19T16:49:28.139Z,10.10
2023-02-19T16:51:56.630Z,10.10
2023-02-19T16:54:24.392Z,9.90
2023-02-19T16:56:51.944Z,9.90
2023-02-19T16:59:19.514Z,9.90
2023-02-19T17:01:47.278Z,9.80
2023-02-19T17:04:15.962Z,9.60
2023-02-19T17:06:49.818Z,9.50
2023-02-19T17:09:17.455Z,9.50
2023-02-19T17:11:44.985Z,9.50
2023-02-19T17:14:12.549Z,12.30
2023-02-19T17:16:40.624Z,9.30
2023-02-19T17:19:19.862Z,9.30
2023-02-19T17:21:47.713Z,9.30
2023-02-19T17:24:15.302Z,9.20
2023-02-19T17:26:43.070Z,9.10
2023-02-19T17:29:14.029Z,9.10
2023-02-19T17:31:41.982Z,9.00
2023-02-19T17:34:09.695Z,8.90
2023-02-19T17:36:42.900Z,8.90
2023-02-19T17:39:15.273Z,8.80
2023-02-19T17:41:43.044Z,8.80
2023-02-19T17:44:10.819Z,8.80
2023-02-19T17:46:39.143Z,8.70
2023-02-19T17:49:07.569Z,8.70
2023-02-19T17:51:35.658Z,8.60
2023-02-19T17:54:03.327Z,8.60
2023-02-19T17:56:30.940Z,8.50
2023-02-19T17:58:59.720Z,8.50
2023-02-19T18:01:27.560Z,8.50
2023-02-19T18:03:55.152Z,8.50
2023-02-19T18:06:23.089Z,8.50
2023-02-19T18:08:52.729Z,8.50
2023-02-19T18:11:22.339Z,8.40
2023-02-19T18:13:53.244Z,8.40
2023-02-19T18:16:21.609Z,8.40
2023-02-19T18:18:52.451Z,8.40
2023-02-19T18:21:23.540Z,8.40
2023-02-19T18:23:51.224Z,8.30
2023-02-19T18:26:21.220Z,8.30
2023-02-19T18:28:48.788Z,8.30
2023-02-19T18:31:16.420Z,8.30
2023-02-19T18:33:44.229Z,8.20
2023-02-19T18:36:12.658Z,8.20
2023-02-19T18:38:40.398Z,8.20
2023-02-19T18:41:19.747Z,8.20
2023-02-19T18:43:48.485Z,8.20
2023-02-19T18:46:16.755Z,8.10
2023-02-19T18:48:44.505Z,8.10
2023-02-19T18:51:12.542Z,8.10
2023-02-19T18:53:42.815Z,8.10
2023-02-19T18:56:10.481Z,8.10
2023-02-19T18:58:38.060Z,8.10
2023-02-19T19:01:05.863Z,8.10
2023-02-19T19:03:33.458Z,8.10
2023-02-19T19:06:01.081Z,8.00
2023-02-19T19:08:30.591Z,8.00
2023-02-19T19:10:58.401Z,7.90
2023-02-19T19:13:26.102Z,8.00
2023-02-19T19:15:53.795Z,8.00
2023-02-19T19:18:21.621Z,7.90
2023-02-19T19:20:49.268Z,7.90
2023-02-19T19:23:16.863Z,7.90
2023-02-19T19:25:44.404Z,7.80
2023-02-19T19:28:11.981Z,7.80
2023-02-19T19:30:39.764Z,7.80
2023-02-19T19:33:07.340Z,7.80
2023-02-19T19:35:34.941Z,7.80
2023-02-19T19:38:03.932Z,7.70
2023-02-19T19:40:31.545Z,7.80
2023-02-19T19:42:59.113Z,7.70
2023-02-19T19:45:26.878Z,7.70
2023-02-19T19:47:54.485Z,7.70
2023-02-19T19:52:50.011Z,7.70
2023-02-19T19:55:17.786Z,7.70
2023-02-19T19:57:45.412Z,7.60
2023-02-19T20:00:16.163Z,7.70
2023-02-19T20:02:46.273Z,7.70
2023-02-19T20:05:14.819Z,7.70
2023-02-19T20:07:43.406Z,7.70
2023-02-19T20:10:12.993Z,7.70
2023-02-19T20:12:40.958Z,7.70
2023-02-19T20:15:09.120Z,7.70
2023-02-19T20:17:36.968Z,7.70
2023-02-19T20:20:05.844Z,7.70
2023-02-19T20:22:33.571Z,7.70
2023-02-19T20:25:01.213Z,7.70
2023-02-19T20:27:28.772Z,7.70
2023-02-19T20:29:56.337Z,7.70
2023-02-19T20:32:23.921Z,7.70
2023-02-19T20:34:51.698Z,7.60
2023-02-19T20:37:19.312Z,7.70
2023-02-19T20:39:46.953Z,7.70
2023-02-19T20:42:17.002Z,7.70
2023-02-19T20:44:44.938Z,7.70
2023-02-19T20:47:12.523Z,7.70
2023-02-19T20:49:45.281Z,7.60
2023-02-19T20:52:15.627Z,7.70
2023-02-19T20:54:44.432Z,7.70
2023-02-19T20:57:12.568Z,7.60
2023-02-19T20:59:40.889Z,7.60
2023-02-19T21:02:29.125Z,7.60
2023-02-19T21:04:57.454Z,7.60
2023-02-19T21:07:25.667Z,7.60
2023-02-19T21:09:53.703Z,7.60
2023-02-19T21:12:22.961Z,7.60
2023-02-19T21:14:50.545Z,7.60
2023-02-19T21:17:18.117Z,7.60
2023-02-19T21:19:48.735Z,7.60
2023-02-19T21:22:17.548Z,7.60
2023-02-19T21:24:49.521Z,7.60
2023-02-19T21:27:17.510Z,7.60
2023-02-19T21:29:46.136Z,7.60
2023-02-19T21:32:14.518Z,7.60
2023-02-19T21:34:43.085Z,7.60
2023-02-19T21:37:11.559Z,7.60
2023-02-19T21:39:39.574Z,7.70
2023-02-19T21:42:07.833Z,7.60
2023-02-19T21:44:38.687Z,7.70
2023-02-19T21:47:06.263Z,7.70
2023-02-19T21:49:33.898Z,7.60
2023-02-19T21:52:01.638Z,7.60
2023-02-19T21:54:29.334Z,7.60
2023-02-19T21:56:57.084Z,7.60
2023-02-19T21:59:24.605Z,7.60
2023-02-19T22:01:52.235Z,7.60
2023-02-19T22:04:22.011Z,7.60
2023-02-19T22:06:49.584Z,7.60
2023-02-19T22:09:17.164Z,7.60
2023-02-19T22:11:44.839Z,7.60
2023-02-19T22:14:12.535Z,7.60
2023-02-19T22:16:40.302Z,7.60
2023-02-19T22:19:07.933Z,7.70
2023-02-19T22:21:35.641Z,7.70
2023-02-19T22:24:03.860Z,7.70
2023-02-19T22:26:34.773Z,7.70
2023-02-19T22:29:07.127Z,7.70
2023-02-19T22:31:36.020Z,7.70
2023-02-19T22:34:04.640Z,7.70
2023-02-19T22:36:34.312Z,7.70
2023-02-19T22:39:02.225Z,7.70
2023-02-19T22:41:30.028Z,7.70
2023-02-19T22:43:58.995Z,7.80
2023-02-19T22:46:29.460Z,7.80
2023-02-19T22:48:58.206Z,7.80
2023-02-19T22:51:26.355Z,7.70
2023-02-19T22:53:55.894Z,7.70
2023-02-19T22:56:27.166Z,7.70
2023-02-19T22:58:56.404Z,7.70
2023-02-19T23:01:24.708Z,7.70
2023-02-19T23:03:58.210Z,7.70
2023-02-19T23:06:31.846Z,7.70
2023-02-19T23:09:06.379Z,7.70
2023-02-19T23:11:38.989Z,7.70
2023-02-19T23:14:07.875Z,7.70
2023-02-19T23:16:36.714Z,7.70
2023-02-19T23:19:13.220Z,7.70
2023-02-19T23:21:43.065Z,7.70
2023-02-19T23:24:12.313Z,7.80
2023-02-19T23:26:48.121Z,7.80
2023-02-19T23:29:25.510Z,7.80
2023-02-19T23:31:54.409Z,7.90
2023-02-19T23:34:22.947Z,7.80
2023-02-19T23:36:51.451Z,7.90
2023-02-19T23:39:21.573Z,7.90
2023-02-19T23:41:54.684Z,7.90
2023-02-19T23:44:23.770Z,7.90
2023-02-19T23:46:51.741Z,7.90
2023-02-19T23:49:19.732Z,8.00
2023-02-19T23:51:47.322Z,8.00
2023-02-19T23:54:14.982Z,8.10
2023-02-19T23:56:42.537Z,8.10
2023-02-19T23:59:10.112Z,8.20
